createdAt,value
2022-12-08T00:02:42.565Z,-2.34
2022-12-08T00:06:05.129Z,-2.24
2022-12-08T00:09:24.221Z,-2.47
2022-12-08T00:12:26.639Z,-2.54
2022-12-08T00:15:29.051Z,-2.62
2022-12-08T00:18:31.439Z,-2.58
2022-12-08T00:21:33.903Z,-2.51
2022-12-08T00:24:39.751Z,-2.59
2022-12-08T00:27:42.363Z,-2.54
2022-12-08T00:30:45.028Z,-2.50
2022-12-08T00:33:47.459Z,-2.53
2022-12-08T00:36:49.880Z,-2.49
2022-12-08T00:39:52.255Z,-2.38
2022-12-08T00:42:54.666Z,-2.58
2022-12-08T00:45:57.098Z,-2.61
2022-12-08T00:48:59.645Z,-2.58
2022-12-08T00:52:02.104Z,-2.61
2022-12-08T00:55:06.191Z,-2.64
2022-12-08T00:58:08.639Z,-2.67
2022-12-08T01:01:11.934Z,-2.56
2022-12-08T01:04:18.141Z,-2.43
2022-12-08T01:07:20.677Z,-2.49
2022-12-08T01:10:23.573Z,-2.39
2022-12-08T01:13:25.972Z,-2.26
2022-12-08T01:16:33.675Z,-2.17
2022-12-08T01:19:37.868Z,-2.08
2022-12-08T01:22:40.400Z,-1.94
2022-12-08T01:25:42.777Z,-1.94
2022-12-08T01:28:46.087Z,-1.77
2022-12-08T01:31:48.538Z,-1.70
2022-12-08T01:34:50.991Z,-1.66
2022-12-08T01:37:53.335Z,-1.59
2022-12-08T01:40:55.815Z,-1.65
2022-12-08T01:43:58.212Z,-1.56
2022-12-08T01:47:00.703Z,-1.47
2022-12-08T01:50:06.979Z,-1.35
2022-12-08T01:53:14.546Z,-1.36
2022-12-08T01:56:29.812Z,-1.47
2022-12-08T01:59:38.233Z,-1.43
2022-12-08T02:03:19.029Z,-1.46
2022-12-08T02:06:21.640Z,-1.49
2022-12-08T02:09:24.666Z,-1.47
2022-12-08T02:12:27.188Z,-1.34
2022-12-08T02:15:38.916Z,-1.15
2022-12-08T02:19:30.426Z,-1.18
2022-12-08T02:22:46.502Z,-1.00
2022-12-08T02:26:01.244Z,-0.97
2022-12-08T02:29:12.607Z,-0.90
2022-12-08T02:32:55.589Z,-1.10
2022-12-08T02:36:04.258Z,-0.97
2022-12-08T02:39:15.725Z,-0.90
2022-12-08T02:42:28.115Z,-0.72
2022-12-08T02:45:36.849Z,-0.70
2022-12-08T02:48:39.454Z,-0.75
2022-12-08T02:51:41.870Z,-0.77
2022-12-08T02:54:50.728Z,-0.77
2022-12-08T02:57:58.964Z,-0.78
2022-12-08T03:01:29.242Z,-0.77
2022-12-08T03:04:47.180Z,-0.78
2022-12-08T03:08:11.441Z,-0.82
2022-12-08T03:11:23.401Z,-0.79
2022-12-08T03:14:26.187Z,-0.69
2022-12-08T03:17:31.208Z,-0.59
2022-12-08T03:20:35.487Z,-0.55
2022-12-08T03:23:39.527Z,-0.48
2022-12-08T03:27:00.219Z,-0.37
2022-12-08T03:30:03.233Z,-0.28
2022-12-08T03:33:30.930Z,-0.54
2022-12-08T03:36:33.802Z,-0.59
2022-12-08T03:39:36.247Z,-0.61
2022-12-08T03:42:38.728Z,-0.56
2022-12-08T03:45:41.157Z,-0.67
2022-12-08T03:48:43.709Z,-0.64
2022-12-08T03:51:46.156Z,-0.70
2022-12-08T03:54:48.666Z,-0.65
2022-12-08T03:57:51.044Z,-0.58
2022-12-08T04:00:53.420Z,-0.65
2022-12-08T04:03:55.977Z,-0.51
2022-12-08T04:06:58.465Z,-0.49
2022-12-08T04:10:00.874Z,-0.38
2022-12-08T04:13:03.434Z,-0.38
2022-12-08T04:16:06.963Z,-0.54
2022-12-08T04:19:15.398Z,-0.59
2022-12-08T04:22:17.831Z,-0.49
2022-12-08T04:25:20.235Z,-0.63
2022-12-08T04:28:22.983Z,-0.96
2022-12-08T04:31:25.576Z,-0.97
2022-12-08T04:34:27.979Z,-1.11
2022-12-08T04:37:30.389Z,-1.29
2022-12-08T04:40:33.616Z,-1.43
2022-12-08T04:43:36.973Z,-1.46
2022-12-08T04:46:43.418Z,-1.38
2022-12-08T04:49:46.367Z,-1.47
2022-12-08T04:52:48.789Z,-1.55
2022-12-08T04:55:51.314Z,-1.60
2022-12-08T04:58:54.464Z,-1.63
2022-12-08T05:01:57.293Z,-1.63
2022-12-08T05:05:00.200Z,-1.65
2022-12-08T05:08:02.744Z,-1.58
2022-12-08T05:11:06.810Z,-1.59
2022-12-08T05:14:12.009Z,-1.66
2022-12-08T05:17:15.763Z,-1.75
2022-12-08T05:20:18.183Z,-1.83
2022-12-08T05:23:21.196Z,-1.87
2022-12-08T05:26:23.591Z,-1.91
2022-12-08T05:29:26.174Z,-1.96
2022-12-08T05:32:28.615Z,-1.83
2022-12-08T05:35:31.000Z,-1.80
2022-12-08T05:38:33.436Z,-1.83
2022-12-08T05:41:35.843Z,-1.88
2022-12-08T05:44:38.316Z,-1.83
2022-12-08T05:47:40.763Z,-1.75
2022-12-08T05:50:50.425Z,-1.77
2022-12-08T05:53:53.549Z,-1.68
2022-12-08T05:56:56.013Z,-1.75
2022-12-08T05:59:59.603Z,-1.66
2022-12-08T06:03:02.503Z,-1.55
2022-12-08T06:06:05.149Z,-1.49
2022-12-08T06:09:09.064Z,-1.34
2022-12-08T06:12:12.102Z,-1.17
2022-12-08T06:15:14.570Z,-1.16
2022-12-08T06:18:17.018Z,-1.01
2022-12-08T06:21:20.026Z,-0.97
2022-12-08T06:24:22.773Z,-0.91
2022-12-08T06:27:25.364Z,-0.75
2022-12-08T06:30:28.750Z,-0.50
2022-12-08T06:33:31.366Z,-0.85
2022-12-08T06:36:34.740Z,-0.77
2022-12-08T06:39:37.348Z,-1.05
2022-12-08T06:42:43.817Z,-1.14
2022-12-08T06:45:46.297Z,-1.27
2022-12-08T06:48:50.663Z,-1.28
2022-12-08T06:51:53.207Z,-1.14
2022-12-08T06:54:55.666Z,-1.14
2022-12-08T06:57:58.150Z,-1.11
2022-12-08T07:01:05.616Z,-1.10
2022-12-08T07:04:08.443Z,-1.02
2022-12-08T07:07:10.885Z,-0.99
2022-12-08T07:10:13.736Z,-0.75
2022-12-08T07:13:16.346Z,-0.56
2022-12-08T07:16:19.057Z,-0.37
2022-12-08T07:19:22.030Z,-0.24
2022-12-08T07:22:24.763Z,-0.16
2022-12-08T07:25:28.410Z,-0.07
2022-12-08T07:28:32.791Z,-0.13
2022-12-08T07:31:35.283Z,-0.11
2022-12-08T07:34:38.092Z,-0.03
2022-12-08T07:37:41.125Z,-0.03
2022-12-08T07:40:43.662Z,-0.01
2022-12-08T07:43:46.708Z,0.09
2022-12-08T07:46:49.094Z,0.63
2022-12-08T07:49:51.570Z,2.85
2022-12-08T07:52:54.120Z,5.08
2022-12-08T07:55:56.579Z,4.78
2022-12-08T07:58:59.025Z,4.16
2022-12-08T08:02:22.833Z,5.80
2022-12-08T08:05:24.118Z,5.88
2022-12-08T08:08:26.665Z,7.51
2022-12-08T08:11:29.322Z,5.55
2022-12-08T08:14:31.840Z,3.61
2022-12-08T08:17:36.458Z,1.61
2022-12-08T08:20:39.100Z,0.58
2022-12-08T08:23:41.676Z,0.21
2022-12-08T08:26:44.225Z,0.12
2022-12-08T08:29:46.796Z,0.13
2022-12-08T08:32:49.998Z,0.08
2022-12-08T08:35:52.462Z,0.32
2022-12-08T08:38:54.915Z,0.31
2022-12-08T08:41:57.848Z,0.16
2022-12-08T08:45:00.248Z,0.08
2022-12-08T08:48:02.855Z,0.15
2022-12-08T08:51:10.722Z,0.07
2022-12-08T08:54:13.238Z,0.19
2022-12-08T08:57:18.421Z,0.25
2022-12-08T09:00:23.216Z,0.38
2022-12-08T09:03:25.757Z,0.41
2022-12-08T09:06:28.709Z,0.59
2022-12-08T09:09:31.548Z,0.56
2022-12-08T09:12:34.033Z,0.53
2022-12-08T09:15:36.568Z,0.77
2022-12-08T09:18:39.159Z,0.82
2022-12-08T09:21:41.628Z,0.93
2022-12-08T09:24:44.126Z,1.19
2022-12-08T09:27:46.632Z,1.11
2022-12-08T09:30:51.764Z,1.34
2022-12-08T09:33:54.399Z,1.35
2022-12-08T09:36:57.203Z,1.48
2022-12-08T09:40:00.246Z,1.76
2022-12-08T09:43:21.375Z,1.46
2022-12-08T09:46:29.033Z,1.48
2022-12-08T09:49:43.030Z,1.39
2022-12-08T09:53:08.518Z,1.64
2022-12-08T09:56:18.900Z,1.62
2022-12-08T09:59:30.555Z,1.58
2022-12-08T10:02:33.113Z,1.60
2022-12-08T10:05:41.653Z,1.83
2022-12-08T10:09:21.175Z,1.96
2022-12-08T10:12:40.728Z,1.67
2022-12-08T10:16:14.022Z,1.72
2022-12-08T10:19:24.464Z,1.83
2022-12-08T10:22:33.682Z,2.11
2022-12-08T10:25:48.720Z,2.47
2022-12-08T10:28:51.803Z,2.70
2022-12-08T10:31:57.181Z,2.81
2022-12-08T10:35:11.163Z,2.99
2022-12-08T10:38:37.622Z,2.82
2022-12-08T10:41:40.732Z,2.81
2022-12-08T10:45:10.546Z,3.04
2022-12-08T10:48:21.287Z,3.20
2022-12-08T10:51:34.539Z,3.05
2022-12-08T10:54:42.048Z,3.18
2022-12-08T10:57:45.141Z,3.31
2022-12-08T11:00:48.143Z,3.49
2022-12-08T11:04:05.598Z,3.63
2022-12-08T11:07:13.355Z,3.87
2022-12-08T11:10:19.012Z,3.91
2022-12-08T11:13:24.545Z,3.81
2022-12-08T11:16:28.097Z,3.88
2022-12-08T11:19:30.914Z,4.00
2022-12-08T11:22:37.163Z,3.83
2022-12-08T11:25:40.248Z,3.84
2022-12-08T11:28:43.098Z,3.90
2022-12-08T11:31:54.772Z,3.67
2022-12-08T11:35:06.721Z,3.48
2022-12-08T11:38:22.996Z,3.50
2022-12-08T11:41:42.020Z,3.33
2022-12-08T11:44:59.053Z,3.15
2022-12-08T11:48:17.623Z,3.21
2022-12-08T11:51:33.464Z,3.34
2022-12-08T11:54:46.003Z,3.06
2022-12-08T11:57:49.128Z,2.69
2022-12-08T12:00:51.897Z,2.76
2022-12-08T12:04:22.869Z,3.15
2022-12-08T12:07:43.816Z,3.29
2022-12-08T12:11:04.846Z,3.19
2022-12-08T12:14:32.528Z,3.05
2022-12-08T12:17:54.196Z,3.20
2022-12-08T12:21:08.182Z,3.49
2022-12-08T12:24:23.931Z,3.44
2022-12-08T12:27:37.551Z,3.63
2022-12-08T12:31:03.065Z,3.45
2022-12-08T12:34:17.066Z,3.04
2022-12-08T12:37:42.093Z,2.61
2022-12-08T12:40:44.693Z,2.29
2022-12-08T12:44:09.271Z,2.25
2022-12-08T12:47:14.733Z,2.62
2022-12-08T12:50:38.723Z,2.87
2022-12-08T12:53:41.088Z,3.02
2022-12-08T12:56:49.082Z,3.01
2022-12-08T12:59:55.226Z,2.98
2022-12-08T13:02:59.237Z,2.97
2022-12-08T13:06:02.690Z,3.05
2022-12-08T13:09:07.312Z,2.85
2022-12-08T13:12:18.077Z,2.91
2022-12-08T13:15:21.030Z,3.17
2022-12-08T13:18:26.122Z,3.40
2022-12-08T13:21:36.063Z,3.45
2022-12-08T13:24:38.615Z,3.43
2022-12-08T13:27:52.517Z,3.53
2022-12-08T13:30:59.840Z,3.44
2022-12-08T13:34:06.787Z,3.55
2022-12-08T13:37:12.324Z,3.57
2022-12-08T13:40:20.943Z,3.62
2022-12-08T13:43:38.797Z,3.57
2022-12-08T13:47:17.170Z,3.54
2022-12-08T13:57:28.798Z,3.27
2022-12-08T14:00:31.791Z,3.29
2022-12-08T14:04:12.431Z,3.26
2022-12-08T14:07:10.223Z,3.17
2022-12-08T14:10:28.448Z,3.09
2022-12-08T14:13:33.231Z,2.77
2022-12-08T14:16:57.369Z,2.62
2022-12-08T14:20:11.947Z,2.71
2022-12-08T14:23:17.457Z,2.67
2022-12-08T14:26:19.913Z,2.32
2022-12-08T14:29:36.716Z,2.24
2022-12-08T14:32:49.742Z,2.29
2022-12-08T14:35:55.002Z,2.26
2022-12-08T14:38:57.711Z,2.10
2022-12-08T14:42:06.553Z,2.00
2022-12-08T14:45:15.075Z,2.01
2022-12-08T14:48:20.527Z,2.11
2022-12-08T14:51:31.900Z,2.13
2022-12-08T14:54:34.531Z,2.31
2022-12-08T14:57:37.037Z,2.48
2022-12-08T15:00:46.471Z,2.57
2022-12-08T15:03:51.454Z,2.70
2022-12-08T15:06:57.220Z,2.69
2022-12-08T15:10:29.526Z,2.68
2022-12-08T15:13:32.071Z,2.75
2022-12-08T15:16:34.485Z,2.75
2022-12-08T15:19:37.019Z,2.71
2022-12-08T15:22:39.452Z,2.74
2022-12-08T15:25:41.914Z,2.80
2022-12-08T15:28:44.321Z,2.77
2022-12-08T15:31:47.030Z,2.78
2022-12-08T15:34:50.016Z,2.83
2022-12-08T15:37:52.504Z,2.79
2022-12-08T15:40:56.420Z,2.76
2022-12-08T15:43:58.773Z,2.84
2022-12-08T15:47:01.866Z,2.84
2022-12-08T15:50:05.480Z,2.89
2022-12-08T15:53:12.528Z,2.90
2022-12-08T15:56:30.385Z,2.89
2022-12-08T15:59:32.880Z,2.87
2022-12-08T16:03:04.928Z,2.84
2022-12-08T16:06:50.943Z,2.83
2022-12-08T16:09:32.829Z,2.78
2022-12-08T16:16:21.500Z,2.77
2022-12-08T16:19:23.961Z,2.73
2022-12-08T16:26:20.278Z,2.72
2022-12-08T16:29:19.754Z,2.78
2022-12-08T16:32:22.495Z,2.84
2022-12-08T16:35:24.972Z,2.84
2022-12-08T16:38:27.462Z,2.93
2022-12-08T16:41:48.504Z,2.97
2022-12-08T16:44:51.145Z,3.04
2022-12-08T16:48:00.751Z,3.06
2022-12-08T16:51:04.629Z,3.03
2022-12-08T16:54:07.143Z,3.09
2022-12-08T16:57:09.553Z,3.08
2022-12-08T17:00:18.150Z,3.19
2022-12-08T17:03:21.027Z,3.20
2022-12-08T17:06:23.527Z,3.33
2022-12-08T17:09:26.970Z,3.32
2022-12-08T17:12:29.624Z,3.33
2022-12-08T17:15:32.053Z,3.39
2022-12-08T17:18:34.859Z,3.46
2022-12-08T17:21:37.530Z,3.44
2022-12-08T17:24:40.081Z,3.43
2022-12-08T17:27:42.750Z,3.44
2022-12-08T17:30:45.320Z,3.46
2022-12-08T17:33:48.026Z,3.38
2022-12-08T17:36:50.969Z,3.44
2022-12-08T17:39:53.417Z,3.53
2022-12-08T17:42:55.985Z,3.48
2022-12-08T17:45:58.660Z,3.48
2022-12-08T17:49:01.265Z,3.50
2022-12-08T17:52:06.917Z,3.42
2022-12-08T17:55:10.124Z,3.40
2022-12-08T17:58:12.894Z,3.42
2022-12-08T18:01:15.448Z,3.47
2022-12-08T18:04:18.362Z,3.38
2022-12-08T18:07:20.900Z,3.40
2022-12-08T18:10:23.410Z,3.38
2022-12-08T18:13:26.149Z,3.37
2022-12-08T18:16:29.030Z,3.34
2022-12-08T18:19:31.746Z,3.35
2022-12-08T18:22:34.973Z,3.41
2022-12-08T18:25:37.506Z,3.44
2022-12-08T18:28:41.074Z,3.53
2022-12-08T18:31:44.207Z,3.58
2022-12-08T18:34:46.724Z,3.56
2022-12-08T18:37:49.334Z,3.53
2022-12-08T18:40:51.939Z,3.54
2022-12-08T18:43:57.037Z,3.62
2022-12-08T18:46:59.649Z,3.55
2022-12-08T18:50:02.777Z,3.60
2022-12-08T18:53:05.645Z,3.59
2022-12-08T18:56:09.460Z,3.60
2022-12-08T18:59:13.191Z,3.65
2022-12-08T19:02:16.217Z,3.70
2022-12-08T19:05:20.279Z,3.66
2022-12-08T19:08:28.166Z,3.61
2022-12-08T19:11:33.648Z,3.58
2022-12-08T19:14:36.277Z,3.57
2022-12-08T19:17:38.863Z,3.44
2022-12-08T19:20:41.301Z,3.44
2022-12-08T19:23:44.438Z,3.49
2022-12-08T19:26:46.906Z,3.40
2022-12-08T19:29:49.459Z,3.26
2022-12-08T19:32:52.111Z,3.02
2022-12-08T19:35:54.693Z,2.96
2022-12-08T19:39:15.984Z,2.77
2022-12-08T19:42:39.351Z,2.77
2022-12-08T19:45:44.101Z,2.74
2022-12-08T19:48:46.916Z,2.75
2022-12-08T19:51:49.563Z,2.78
2022-12-08T19:54:52.398Z,2.71
2022-12-08T19:57:56.773Z,2.85
2022-12-08T20:00:59.511Z,2.93
2022-12-08T20:04:01.953Z,3.09
2022-12-08T20:07:04.508Z,3.07
2022-12-08T20:10:14.458Z,3.10
2022-12-08T20:13:35.655Z,3.17
2022-12-08T20:16:38.313Z,3.22
2022-12-08T20:19:41.384Z,3.19
2022-12-08T20:22:45.343Z,3.21
2022-12-08T20:25:48.317Z,3.25
2022-12-08T20:28:57.846Z,3.25
2022-12-08T20:32:00.671Z,3.22
2022-12-08T20:35:03.984Z,3.19
2022-12-08T20:38:06.989Z,3.17
2022-12-08T20:41:10.235Z,3.20
2022-12-08T20:44:12.750Z,3.30
2022-12-08T20:47:16.163Z,3.31
2022-12-08T20:50:19.022Z,3.24
2022-12-08T20:53:21.913Z,3.23
2022-12-08T20:56:25.728Z,3.43
2022-12-08T20:59:28.857Z,3.43
2022-12-08T21:02:31.542Z,3.39
2022-12-08T21:05:36.272Z,3.41
2022-12-08T21:08:39.388Z,3.31
2022-12-08T21:11:42.177Z,3.44
2022-12-08T21:14:45.191Z,3.41
2022-12-08T21:17:48.045Z,3.28
2022-12-08T21:20:51.650Z,3.44
2022-12-08T21:23:54.489Z,3.39
2022-12-08T21:26:57.146Z,3.29
2022-12-08T21:29:59.740Z,3.35
2022-12-08T21:33:02.244Z,3.19
2022-12-08T21:36:12.107Z,3.21
2022-12-08T21:39:14.652Z,3.22
2022-12-08T21:42:35.883Z,3.24
2022-12-08T21:45:39.691Z,3.13
2022-12-08T21:48:42.211Z,3.02
2022-12-08T21:51:44.744Z,3.00
2022-12-08T21:54:47.407Z,3.00
2022-12-08T21:57:49.897Z,3.05
2022-12-08T22:00:52.628Z,3.21
2022-12-08T22:03:55.817Z,3.28
2022-12-08T22:06:58.432Z,3.32
2022-12-08T22:10:01.070Z,3.37
2022-12-08T22:13:03.992Z,3.39
2022-12-08T22:16:08.722Z,3.29
2022-12-08T22:19:12.200Z,3.31
2022-12-08T22:22:16.204Z,3.37
2022-12-08T22:25:18.787Z,3.36
2022-12-08T22:28:21.165Z,3.31
2022-12-08T22:31:23.657Z,3.38
2022-12-08T22:34:26.237Z,3.13
2022-12-08T22:37:28.875Z,3.11
2022-12-08T22:40:31.283Z,3.14
2022-12-08T22:43:34.200Z,3.15
2022-12-08T22:46:37.017Z,3.20
2022-12-08T22:49:39.473Z,3.16
2022-12-08T22:52:42.226Z,3.13
2022-12-08T22:55:45.125Z,3.26
2022-12-08T22:58:48.290Z,3.34
2022-12-08T23:01:51.465Z,3.35
2022-12-08T23:04:57.582Z,3.11
2022-12-08T23:08:00.514Z,3.07
2022-12-08T23:11:02.957Z,2.98
2022-12-08T23:14:05.420Z,3.01
2022-12-08T23:17:08.186Z,3.04
2022-12-08T23:20:11.758Z,3.03
2022-12-08T23:23:15.043Z,3.03
2022-12-08T23:26:22.098Z,3.12
2022-12-08T23:29:24.680Z,3.18
2022-12-08T23:32:27.479Z,3.26
2022-12-08T23:35:29.999Z,3.26
2022-12-08T23:38:33.110Z,3.36
2022-12-08T23:41:35.541Z,3.33
2022-12-08T23:44:38.093Z,3.33
2022-12-08T23:47:40.609Z,3.42
2022-12-08T23:50:43.095Z,3.40
2022-12-08T23:53:45.989Z,3.32
2022-12-08T23:56:48.460Z,3.28
2022-12-08T23:59:50.942Z,3.33
